sensor_id;sensor_type;location;lat;lon;timestamp;temperature;humidity
40758;DHT22;26462;47.384;19.218;2022-07-29T00:01:08;24.00;66.30
40758;DHT22;26462;47.384;19.218;2022-07-29T00:03:45;24.00;66.40
40758;DHT22;26462;47.384;19.218;2022-07-29T00:06:14;23.90;66.50
40758;DHT22;26462;47.384;19.218;2022-07-29T00:08:41;24.00;66.70
40758;DHT22;26462;47.384;19.218;2022-07-29T00:11:09;24.00;66.70
40758;DHT22;26462;47.384;19.218;2022-07-29T00:13:37;24.00;66.70
40758;DHT22;26462;47.384;19.218;2022-07-29T00:16:04;23.90;66.80
40758;DHT22;26462;47.384;19.218;2022-07-29T00:18:32;23.90;67.00
40758;DHT22;26462;47.384;19.218;2022-07-29T00:20:59;24.00;67.20
40758;DHT22;26462;47.384;19.218;2022-07-29T00:23:27;23.90;67.10
40758;DHT22;26462;47.384;19.218;2022-07-29T00:25:56;23.90;67.20
40758;DHT22;26462;47.384;19.218;2022-07-29T00:28:23;23.90;67.20
40758;DHT22;26462;47.384;19.218;2022-07-29T00:30:51;23.90;67.20
40758;DHT22;26462;47.384;19.218;2022-07-29T00:33:19;23.90;67.10
40758;DHT22;26462;47.384;19.218;2022-07-29T00:35:46;23.90;67.10
40758;DHT22;26462;47.384;19.218;2022-07-29T00:38:17;24.00;67.10
40758;DHT22;26462;47.384;19.218;2022-07-29T00:40:45;23.90;67.10
40758;DHT22;26462;47.384;19.218;2022-07-29T00:43:13;23.90;67.30
40758;DHT22;26462;47.384;19.218;2022-07-29T00:45:41;23.90;67.40
40758;DHT22;26462;47.384;19.218;2022-07-29T00:48:09;23.80;67.40
40758;DHT22;26462;47.384;19.218;2022-07-29T00:50:37;23.90;67.40
40758;DHT22;26462;47.384;19.218;2022-07-29T00:53:06;23.80;67.40
40758;DHT22;26462;47.384;19.218;2022-07-29T00:55:35;23.80;67.20
40758;DHT22;26462;47.384;19.218;2022-07-29T00:58:02;23.80;67.20
40758;DHT22;26462;47.384;19.218;2022-07-29T01:00:30;23.80;67.30
40758;DHT22;26462;47.384;19.218;2022-07-29T01:02:58;23.70;67.30
40758;DHT22;26462;47.384;19.218;2022-07-29T01:05:26;23.70;67.20
40758;DHT22;26462;47.384;19.218;2022-07-29T01:08:15;23.60;67.40
40758;DHT22;26462;47.384;19.218;2022-07-29T01:10:44;23.70;67.30
40758;DHT22;26462;47.384;19.218;2022-07-29T01:13:12;23.70;67.10
40758;DHT22;26462;47.384;19.218;2022-07-29T01:15:47;23.70;67.10
40758;DHT22;26462;47.384;19.218;2022-07-29T01:18:34;23.70;67.20
40758;DHT22;26462;47.384;19.218;2022-07-29T01:30:14;23.70;67.60
40758;DHT22;26462;47.384;19.218;2022-07-29T01:32:43;23.60;67.60
40758;DHT22;26462;47.384;19.218;2022-07-29T01:35:27;23.60;67.80
40758;DHT22;26462;47.384;19.218;2022-07-29T01:38:20;23.60;67.70
40758;DHT22;26462;47.384;19.218;2022-07-29T01:40:51;23.70;67.80
40758;DHT22;26462;47.384;19.218;2022-07-29T01:43:23;23.70;68.50
40758;DHT22;26462;47.384;19.218;2022-07-29T01:46:01;23.70;67.70
40758;DHT22;26462;47.384;19.218;2022-07-29T01:48:47;23.70;67.80
40758;DHT22;26462;47.384;19.218;2022-07-29T01:51:36;23.70;68.00
40758;DHT22;26462;47.384;19.218;2022-07-29T01:56:49;23.70;68.40
40758;DHT22;26462;47.384;19.218;2022-07-29T01:59:18;23.60;68.20
40758;DHT22;26462;47.384;19.218;2022-07-29T02:01:47;23.60;68.70
40758;DHT22;26462;47.384;19.218;2022-07-29T02:04:21;23.60;68.40
40758;DHT22;26462;47.384;19.218;2022-07-29T02:07:00;23.70;68.60
40758;DHT22;26462;47.384;19.218;2022-07-29T02:09:30;23.70;68.70
40758;DHT22;26462;47.384;19.218;2022-07-29T02:11:59;23.70;68.60
40758;DHT22;26462;47.384;19.218;2022-07-29T02:14:31;23.60;68.90
40758;DHT22;26462;47.384;19.218;2022-07-29T02:17:03;23.60;68.80
40758;DHT22;26462;47.384;19.218;2022-07-29T02:19:32;23.60;68.90
40758;DHT22;26462;47.384;19.218;2022-07-29T02:22:00;23.60;68.90
40758;DHT22;26462;47.384;19.218;2022-07-29T02:24:29;23.60;69.20
40758;DHT22;26462;47.384;19.218;2022-07-29T02:26:59;23.60;69.30
40758;DHT22;26462;47.384;19.218;2022-07-29T02:29:28;23.60;69.60
40758;DHT22;26462;47.384;19.218;2022-07-29T02:31:58;23.60;69.20
40758;DHT22;26462;47.384;19.218;2022-07-29T02:34:27;23.60;69.60
40758;DHT22;26462;47.384;19.218;2022-07-29T02:36:55;23.50;69.60
40758;DHT22;26462;47.384;19.218;2022-07-29T02:39:24;23.50;69.70
40758;DHT22;26462;47.384;19.218;2022-07-29T02:42:10;23.50;69.30
40758;DHT22;26462;47.384;19.218;2022-07-29T02:44:38;23.50;69.30
40758;DHT22;26462;47.384;19.218;2022-07-29T02:47:27;23.50;69.90
40758;DHT22;26462;47.384;19.218;2022-07-29T02:50:29;23.50;70.20
40758;DHT22;26462;47.384;19.218;2022-07-29T02:55:40;23.50;70.80
40758;DHT22;26462;47.384;19.218;2022-07-29T03:01:20;23.40;71.00
40758;DHT22;26462;47.384;19.218;2022-07-29T03:03:50;23.40;71.70
40758;DHT22;26462;47.384;19.218;2022-07-29T03:06:21;23.30;71.40
40758;DHT22;26462;47.384;19.218;2022-07-29T03:09:06;23.30;70.80
40758;DHT22;26462;47.384;19.218;2022-07-29T03:11:41;23.30;70.50
40758;DHT22;26462;47.384;19.218;2022-07-29T03:14:18;23.30;70.80
40758;DHT22;26462;47.384;19.218;2022-07-29T03:16:47;23.30;71.00
40758;DHT22;26462;47.384;19.218;2022-07-29T03:19:15;23.30;70.90
40758;DHT22;26462;47.384;19.218;2022-07-29T03:21:43;23.30;71.30
40758;DHT22;26462;47.384;19.218;2022-07-29T03:24:10;23.30;71.30
40758;DHT22;26462;47.384;19.218;2022-07-29T03:26:51;23.20;71.80
40758;DHT22;26462;47.384;19.218;2022-07-29T03:29:18;23.10;71.70
40758;DHT22;26462;47.384;19.218;2022-07-29T03:31:46;23.20;71.80
40758;DHT22;26462;47.384;19.218;2022-07-29T03:34:14;23.10;72.30
40758;DHT22;26462;47.384;19.218;2022-07-29T03:36:42;23.10;72.40
40758;DHT22;26462;47.384;19.218;2022-07-29T03:39:10;23.10;72.70
40758;DHT22;26462;47.384;19.218;2022-07-29T03:41:41;23.10;72.90
40758;DHT22;26462;47.384;19.218;2022-07-29T03:44:11;23.10;72.70
40758;DHT22;26462;47.384;19.218;2022-07-29T03:46:39;23.10;73.40
40758;DHT22;26462;47.384;19.218;2022-07-29T03:49:09;23.10;73.10
40758;DHT22;26462;47.384;19.218;2022-07-29T03:51:38;23.10;72.40
40758;DHT22;26462;47.384;19.218;2022-07-29T03:54:06;23.00;72.60
40758;DHT22;26462;47.384;19.218;2022-07-29T03:56:39;23.00;72.40
40758;DHT22;26462;47.384;19.218;2022-07-29T03:59:07;23.00;72.30
40758;DHT22;26462;47.384;19.218;2022-07-29T04:01:35;23.00;72.30
40758;DHT22;26462;47.384;19.218;2022-07-29T04:04:04;22.90;72.50
40758;DHT22;26462;47.384;19.218;2022-07-29T04:06:44;23.00;72.80
40758;DHT22;26462;47.384;19.218;2022-07-29T04:09:14;23.10;72.40
40758;DHT22;26462;47.384;19.218;2022-07-29T04:11:42;23.10;72.20
40758;DHT22;26462;47.384;19.218;2022-07-29T04:14:30;23.10;72.80
40758;DHT22;26462;47.384;19.218;2022-07-29T04:16:57;23.10;72.60
40758;DHT22;26462;47.384;19.218;2022-07-29T04:19:25;23.10;72.20
40758;DHT22;26462;47.384;19.218;2022-07-29T04:21:52;23.10;72.80
40758;DHT22;26462;47.384;19.218;2022-07-29T04:24:19;23.20;72.60
40758;DHT22;26462;47.384;19.218;2022-07-29T04:26:48;23.20;72.20
40758;DHT22;26462;47.384;19.218;2022-07-29T04:29:15;23.20;71.90
40758;DHT22;26462;47.384;19.218;2022-07-29T04:31:43;23.20;72.20
40758;DHT22;26462;47.384;19.218;2022-07-29T04:34:11;23.20;71.80
40758;DHT22;26462;47.384;19.218;2022-07-29T04:36:39;23.10;71.70
40758;DHT22;26462;47.384;19.218;2022-07-29T04:39:06;23.20;71.90
40758;DHT22;26462;47.384;19.218;2022-07-29T04:41:34;23.20;71.40
40758;DHT22;26462;47.384;19.218;2022-07-29T04:44:01;23.30;71.80
40758;DHT22;26462;47.384;19.218;2022-07-29T04:46:34;23.20;71.80
40758;DHT22;26462;47.384;19.218;2022-07-29T04:49:03;23.20;71.30
40758;DHT22;26462;47.384;19.218;2022-07-29T04:51:30;23.30;71.20
40758;DHT22;26462;47.384;19.218;2022-07-29T04:53:58;23.40;71.20
40758;DHT22;26462;47.384;19.218;2022-07-29T04:56:26;23.40;71.40
40758;DHT22;26462;47.384;19.218;2022-07-29T04:58:56;23.40;71.20
40758;DHT22;26462;47.384;19.218;2022-07-29T05:01:23;23.40;71.60
40758;DHT22;26462;47.384;19.218;2022-07-29T05:03:51;23.60;70.80
40758;DHT22;26462;47.384;19.218;2022-07-29T05:06:24;23.60;70.60
40758;DHT22;26462;47.384;19.218;2022-07-29T05:08:51;23.60;70.40
40758;DHT22;26462;47.384;19.218;2022-07-29T05:11:19;23.80;70.00
40758;DHT22;26462;47.384;19.218;2022-07-29T05:13:49;23.80;69.70
40758;DHT22;26462;47.384;19.218;2022-07-29T05:16:17;23.90;69.80
40758;DHT22;26462;47.384;19.218;2022-07-29T05:18:44;24.10;69.40
40758;DHT22;26462;47.384;19.218;2022-07-29T05:21:12;24.20;69.30
40758;DHT22;26462;47.384;19.218;2022-07-29T05:23:39;24.30;68.10
40758;DHT22;26462;47.384;19.218;2022-07-29T05:26:06;24.40;67.70
40758;DHT22;26462;47.384;19.218;2022-07-29T05:28:34;24.60;67.40
40758;DHT22;26462;47.384;19.218;2022-07-29T05:31:02;24.60;67.00
40758;DHT22;26462;47.384;19.218;2022-07-29T05:33:29;24.70;66.60
40758;DHT22;26462;47.384;19.218;2022-07-29T05:36:04;24.80;66.40
40758;DHT22;26462;47.384;19.218;2022-07-29T05:38:37;24.80;65.90
40758;DHT22;26462;47.384;19.218;2022-07-29T05:41:05;24.90;65.90
40758;DHT22;26462;47.384;19.218;2022-07-29T05:43:32;24.90;65.50
40758;DHT22;26462;47.384;19.218;2022-07-29T05:46:00;25.00;65.60
40758;DHT22;26462;47.384;19.218;2022-07-29T05:48:28;25.00;65.50
40758;DHT22;26462;47.384;19.218;2022-07-29T05:50:55;25.10;65.30
40758;DHT22;26462;47.384;19.218;2022-07-29T05:53:23;25.20;65.20
40758;DHT22;26462;47.384;19.218;2022-07-29T05:55:51;25.30;65.00
40758;DHT22;26462;47.384;19.218;2022-07-29T05:58:19;25.50;65.10
40758;DHT22;26462;47.384;19.218;2022-07-29T06:00:47;25.50;64.60
40758;DHT22;26462;47.384;19.218;2022-07-29T06:03:14;25.70;64.40
40758;DHT22;26462;47.384;19.218;2022-07-29T06:05:42;25.80;64.00
40758;DHT22;26462;47.384;19.218;2022-07-29T06:08:10;25.70;64.00
40758;DHT22;26462;47.384;19.218;2022-07-29T06:10:37;25.90;64.30
40758;DHT22;26462;47.384;19.218;2022-07-29T06:13:05;26.00;64.90
40758;DHT22;26462;47.384;19.218;2022-07-29T06:15:32;26.20;64.50
40758;DHT22;26462;47.384;19.218;2022-07-29T06:18:00;26.30;63.70
40758;DHT22;26462;47.384;19.218;2022-07-29T06:20:29;26.30;63.70
40758;DHT22;26462;47.384;19.218;2022-07-29T06:22:58;26.40;63.30
40758;DHT22;26462;47.384;19.218;2022-07-29T06:25:27;26.60;63.40
40758;DHT22;26462;47.384;19.218;2022-07-29T06:27:56;26.80;63.10
40758;DHT22;26462;47.384;19.218;2022-07-29T06:30:24;26.80;63.10
40758;DHT22;26462;47.384;19.218;2022-07-29T06:32:51;26.90;62.60
40758;DHT22;26462;47.384;19.218;2022-07-29T06:35:18;26.90;62.50
40758;DHT22;26462;47.384;19.218;2022-07-29T06:38:06;26.90;62.40
40758;DHT22;26462;47.384;19.218;2022-07-29T06:40:53;27.10;62.40
40758;DHT22;26462;47.384;19.218;2022-07-29T06:43:38;26.90;62.80
40758;DHT22;26462;47.384;19.218;2022-07-29T06:46:20;26.90;64.30
40758;DHT22;26462;47.384;19.218;2022-07-29T06:48:48;26.80;63.20
40758;DHT22;26462;47.384;19.218;2022-07-29T06:51:16;27.10;64.40
40758;DHT22;26462;47.384;19.218;2022-07-29T06:53:51;27.20;63.50
40758;DHT22;26462;47.384;19.218;2022-07-29T06:56:26;27.40;63.10
40758;DHT22;26462;47.384;19.218;2022-07-29T06:58:54;27.40;62.70
40758;DHT22;26462;47.384;19.218;2022-07-29T07:01:21;27.40;62.60
40758;DHT22;26462;47.384;19.218;2022-07-29T07:03:48;27.30;62.40
40758;DHT22;26462;47.384;19.218;2022-07-29T07:06:16;27.20;63.10
40758;DHT22;26462;47.384;19.218;2022-07-29T07:08:44;27.20;62.70
40758;DHT22;26462;47.384;19.218;2022-07-29T07:11:11;27.40;63.00
40758;DHT22;26462;47.384;19.218;2022-07-29T07:13:39;27.60;62.10
40758;DHT22;26462;47.384;19.218;2022-07-29T07:16:06;27.80;63.80
40758;DHT22;26462;47.384;19.218;2022-07-29T07:18:33;27.90;62.10
40758;DHT22;26462;47.384;19.218;2022-07-29T07:21:01;28.10;61.70
40758;DHT22;26462;47.384;19.218;2022-07-29T07:23:28;28.10;61.10
40758;DHT22;26462;47.384;19.218;2022-07-29T07:25:56;28.00;61.10
40758;DHT22;26462;47.384;19.218;2022-07-29T07:28:23;28.00;61.10
40758;DHT22;26462;47.384;19.218;2022-07-29T07:30:51;27.90;61.60
40758;DHT22;26462;47.384;19.218;2022-07-29T07:33:19;28.00;61.70
40758;DHT22;26462;47.384;19.218;2022-07-29T07:35:47;28.10;61.60
40758;DHT22;26462;47.384;19.218;2022-07-29T07:38:14;28.30;60.80
40758;DHT22;26462;47.384;19.218;2022-07-29T07:40:42;28.50;61.10
40758;DHT22;26462;47.384;19.218;2022-07-29T07:43:09;28.70;60.50
40758;DHT22;26462;47.384;19.218;2022-07-29T07:45:36;28.70;59.90
40758;DHT22;26462;47.384;19.218;2022-07-29T07:48:04;28.80;60.60
40758;DHT22;26462;47.384;19.218;2022-07-29T07:50:32;29.00;61.00
40758;DHT22;26462;47.384;19.218;2022-07-29T07:53:00;29.00;59.70
40758;DHT22;26462;47.384;19.218;2022-07-29T07:55:29;29.00;59.50
40758;DHT22;26462;47.384;19.218;2022-07-29T07:58:16;29.10;59.60
40758;DHT22;26462;47.384;19.218;2022-07-29T08:00:43;29.30;59.80
40758;DHT22;26462;47.384;19.218;2022-07-29T08:03:11;29.20;59.20
40758;DHT22;26462;47.384;19.218;2022-07-29T08:05:43;29.30;59.50
40758;DHT22;26462;47.384;19.218;2022-07-29T08:08:10;29.40;59.30
40758;DHT22;26462;47.384;19.218;2022-07-29T08:10:38;29.40;58.80
40758;DHT22;26462;47.384;19.218;2022-07-29T08:13:24;29.30;58.50
40758;DHT22;26462;47.384;19.218;2022-07-29T08:15:52;29.40;59.10
40758;DHT22;26462;47.384;19.218;2022-07-29T08:18:29;29.50;59.20
40758;DHT22;26462;47.384;19.218;2022-07-29T08:20:57;29.40;58.60
40758;DHT22;26462;47.384;19.218;2022-07-29T08:23:25;29.50;58.70
40758;DHT22;26462;47.384;19.218;2022-07-29T08:26:14;29.60;58.70
40758;DHT22;26462;47.384;19.218;2022-07-29T08:28:43;29.70;58.10
40758;DHT22;26462;47.384;19.218;2022-07-29T08:31:13;29.80;57.90
40758;DHT22;26462;47.384;19.218;2022-07-29T08:33:42;29.80;58.20
40758;DHT22;26462;47.384;19.218;2022-07-29T08:36:09;29.90;57.60
40758;DHT22;26462;47.384;19.218;2022-07-29T08:38:37;30.00;58.60
40758;DHT22;26462;47.384;19.218;2022-07-29T08:41:04;30.10;56.50
40758;DHT22;26462;47.384;19.218;2022-07-29T08:43:32;30.20;56.90
40758;DHT22;26462;47.384;19.218;2022-07-29T08:46:02;30.30;56.40
40758;DHT22;26462;47.384;19.218;2022-07-29T08:48:29;30.30;57.30
40758;DHT22;26462;47.384;19.218;2022-07-29T08:50:58;30.30;56.40
40758;DHT22;26462;47.384;19.218;2022-07-29T08:53:26;30.40;54.80
40758;DHT22;26462;47.384;19.218;2022-07-29T08:55:54;30.40;54.10
40758;DHT22;26462;47.384;19.218;2022-07-29T08:58:23;30.40;54.40
40758;DHT22;26462;47.384;19.218;2022-07-29T09:00:53;30.50;54.80
40758;DHT22;26462;47.384;19.218;2022-07-29T09:03:30;30.50;55.40
40758;DHT22;26462;47.384;19.218;2022-07-29T09:05:59;30.60;54.70
40758;DHT22;26462;47.384;19.218;2022-07-29T09:08:27;30.70;54.80
40758;DHT22;26462;47.384;19.218;2022-07-29T09:10:54;30.70;53.20
40758;DHT22;26462;47.384;19.218;2022-07-29T09:13:28;30.70;54.20
40758;DHT22;26462;47.384;19.218;2022-07-29T09:15:55;30.80;53.50
40758;DHT22;26462;47.384;19.218;2022-07-29T09:18:43;30.90;54.10
40758;DHT22;26462;47.384;19.218;2022-07-29T09:21:13;30.80;51.80
40758;DHT22;26462;47.384;19.218;2022-07-29T09:24:08;30.90;53.30
40758;DHT22;26462;47.384;19.218;2022-07-29T09:26:43;30.90;52.20
40758;DHT22;26462;47.384;19.218;2022-07-29T09:29:12;31.00;53.70
40758;DHT22;26462;47.384;19.218;2022-07-29T09:31:41;31.10;51.40
40758;DHT22;26462;47.384;19.218;2022-07-29T09:34:10;31.00;51.20
40758;DHT22;26462;47.384;19.218;2022-07-29T09:39:10;31.00;51.80
40758;DHT22;26462;47.384;19.218;2022-07-29T09:42:04;31.00;50.90
40758;DHT22;26462;47.384;19.218;2022-07-29T09:44:44;31.10;51.20
40758;DHT22;26462;47.384;19.218;2022-07-29T09:47:12;31.20;51.90
40758;DHT22;26462;47.384;19.218;2022-07-29T09:49:58;31.20;51.10
40758;DHT22;26462;47.384;19.218;2022-07-29T09:52:27;31.20;51.10
40758;DHT22;26462;47.384;19.218;2022-07-29T09:55:06;31.20;51.30
40758;DHT22;26462;47.384;19.218;2022-07-29T09:57:33;31.20;49.90
40758;DHT22;26462;47.384;19.218;2022-07-29T10:03:04;31.20;49.50
40758;DHT22;26462;47.384;19.218;2022-07-29T10:05:32;31.40;50.60
40758;DHT22;26462;47.384;19.218;2022-07-29T10:08:03;31.50;49.50
40758;DHT22;26462;47.384;19.218;2022-07-29T10:10:31;31.40;49.40
40758;DHT22;26462;47.384;19.218;2022-07-29T10:13:06;31.40;49.70
40758;DHT22;26462;47.384;19.218;2022-07-29T10:15:43;31.40;49.10
40758;DHT22;26462;47.384;19.218;2022-07-29T10:18:13;31.40;48.00
40758;DHT22;26462;47.384;19.218;2022-07-29T10:20:41;31.40;48.80
40758;DHT22;26462;47.384;19.218;2022-07-29T10:23:09;31.20;49.00
40758;DHT22;26462;47.384;19.218;2022-07-29T10:25:36;31.20;48.70
40758;DHT22;26462;47.384;19.218;2022-07-29T10:28:05;31.10;48.10
40758;DHT22;26462;47.384;19.218;2022-07-29T10:30:33;30.90;49.20
40758;DHT22;26462;47.384;19.218;2022-07-29T10:42:11;31.40;49.10
40758;DHT22;26462;47.384;19.218;2022-07-29T10:45:02;31.60;48.30
40758;DHT22;26462;47.384;19.218;2022-07-29T10:47:30;31.70;48.70
40758;DHT22;26462;47.384;19.218;2022-07-29T10:50:05;31.80;48.70
40758;DHT22;26462;47.384;19.218;2022-07-29T10:52:55;31.80;48.10
40758;DHT22;26462;47.384;19.218;2022-07-29T10:55:37;31.90;48.20
40758;DHT22;26462;47.384;19.218;2022-07-29T10:58:16;31.90;48.70
40758;DHT22;26462;47.384;19.218;2022-07-29T11:00:46;32.00;48.20
40758;DHT22;26462;47.384;19.218;2022-07-29T11:06:15;32.30;46.70
40758;DHT22;26462;47.384;19.218;2022-07-29T11:09:15;32.30;47.70
40758;DHT22;26462;47.384;19.218;2022-07-29T11:11:51;32.10;46.10
40758;DHT22;26462;47.384;19.218;2022-07-29T11:14:55;31.80;47.10
40758;DHT22;26462;47.384;19.218;2022-07-29T11:17:23;31.70;47.50
40758;DHT22;26462;47.384;19.218;2022-07-29T11:19:50;31.90;48.10
40758;DHT22;26462;47.384;19.218;2022-07-29T11:22:34;32.00;47.50
40758;DHT22;26462;47.384;19.218;2022-07-29T11:25:15;32.10;46.80
40758;DHT22;26462;47.384;19.218;2022-07-29T11:27:47;32.20;48.30
40758;DHT22;26462;47.384;19.218;2022-07-29T11:30:14;32.40;47.80
40758;DHT22;26462;47.384;19.218;2022-07-29T11:32:44;32.10;48.00
40758;DHT22;26462;47.384;19.218;2022-07-29T11:35:32;32.00;48.50
40758;DHT22;26462;47.384;19.218;2022-07-29T11:38:25;32.10;47.80
40758;DHT22;26462;47.384;19.218;2022-07-29T11:43:58;32.10;46.50
40758;DHT22;26462;47.384;19.218;2022-07-29T11:46:49;32.00;46.10
40758;DHT22;26462;47.384;19.218;2022-07-29T11:49:22;31.90;46.70
40758;DHT22;26462;47.384;19.218;2022-07-29T11:51:59;32.00;47.50
40758;DHT22;26462;47.384;19.218;2022-07-29T11:54:34;31.90;46.50
40758;DHT22;26462;47.384;19.218;2022-07-29T11:57:21;32.10;46.50
40758;DHT22;26462;47.384;19.218;2022-07-29T12:00:09;32.20;46.70
40758;DHT22;26462;47.384;19.218;2022-07-29T12:02:40;32.30;47.00
40758;DHT22;26462;47.384;19.218;2022-07-29T12:05:10;32.30;47.20
40758;DHT22;26462;47.384;19.218;2022-07-29T12:07:40;32.30;46.70
40758;DHT22;26462;47.384;19.218;2022-07-29T12:10:13;32.40;46.40
40758;DHT22;26462;47.384;19.218;2022-07-29T12:12:55;32.30;46.70
40758;DHT22;26462;47.384;19.218;2022-07-29T12:15:22;32.30;46.90
40758;DHT22;26462;47.384;19.218;2022-07-29T12:18:18;32.40;47.40
40758;DHT22;26462;47.384;19.218;2022-07-29T12:21:00;32.50;46.30
40758;DHT22;26462;47.384;19.218;2022-07-29T12:23:31;32.60;46.20
40758;DHT22;26462;47.384;19.218;2022-07-29T12:26:05;32.70;46.80
40758;DHT22;26462;47.384;19.218;2022-07-29T12:28:37;32.70;45.50
40758;DHT22;26462;47.384;19.218;2022-07-29T12:31:08;32.60;45.90
40758;DHT22;26462;47.384;19.218;2022-07-29T12:33:39;32.70;46.00
40758;DHT22;26462;47.384;19.218;2022-07-29T12:36:07;32.70;46.20
40758;DHT22;26462;47.384;19.218;2022-07-29T12:38:43;32.60;46.40
40758;DHT22;26462;47.384;19.218;2022-07-29T12:41:11;32.70;45.60
40758;DHT22;26462;47.384;19.218;2022-07-29T12:43:52;32.70;45.70
40758;DHT22;26462;47.384;19.218;2022-07-29T12:46:20;32.80;45.50
40758;DHT22;26462;47.384;19.218;2022-07-29T12:48:52;32.50;46.70
40758;DHT22;26462;47.384;19.218;2022-07-29T12:51:37;32.30;46.40
40758;DHT22;26462;47.384;19.218;2022-07-29T12:54:09;32.00;46.10
40758;DHT22;26462;47.384;19.218;2022-07-29T12:56:39;31.90;46.20
40758;DHT22;26462;47.384;19.218;2022-07-29T12:59:20;31.80;46.40
40758;DHT22;26462;47.384;19.218;2022-07-29T13:01:50;31.80;46.80
40758;DHT22;26462;47.384;19.218;2022-07-29T13:04:29;32.00;46.10
40758;DHT22;26462;47.384;19.218;2022-07-29T13:07:02;32.10;46.10
40758;DHT22;26462;47.384;19.218;2022-07-29T13:09:43;32.20;46.60
40758;DHT22;26462;47.384;19.218;2022-07-29T13:12:12;32.40;46.90
40758;DHT22;26462;47.384;19.218;2022-07-29T13:14:43;32.50;45.60
40758;DHT22;26462;47.384;19.218;2022-07-29T13:17:15;32.50;46.00
40758;DHT22;26462;47.384;19.218;2022-07-29T13:22:16;32.80;45.70
40758;DHT22;26462;47.384;19.218;2022-07-29T13:24:55;32.60;44.40
40758;DHT22;26462;47.384;19.218;2022-07-29T13:27:27;32.50;45.60
40758;DHT22;26462;47.384;19.218;2022-07-29T13:29:57;32.60;45.90
40758;DHT22;26462;47.384;19.218;2022-07-29T13:32:27;32.70;44.80
40758;DHT22;26462;47.384;19.218;2022-07-29T13:35:00;32.80;44.80
40758;DHT22;26462;47.384;19.218;2022-07-29T13:37:32;32.80;44.70
40758;DHT22;26462;47.384;19.218;2022-07-29T13:40:05;32.80;44.90
40758;DHT22;26462;47.384;19.218;2022-07-29T13:42:33;32.80;45.10
40758;DHT22;26462;47.384;19.218;2022-07-29T13:45:01;32.80;45.50
40758;DHT22;26462;47.384;19.218;2022-07-29T13:47:28;32.90;44.90
40758;DHT22;26462;47.384;19.218;2022-07-29T13:50:00;33.00;45.00
40758;DHT22;26462;47.384;19.218;2022-07-29T13:52:28;33.00;45.00
40758;DHT22;26462;47.384;19.218;2022-07-29T13:54:56;33.00;45.40
40758;DHT22;26462;47.384;19.218;2022-07-29T13:57:24;32.90;44.50
40758;DHT22;26462;47.384;19.218;2022-07-29T13:59:51;33.00;44.80
40758;DHT22;26462;47.384;19.218;2022-07-29T14:02:20;33.00;44.70
40758;DHT22;26462;47.384;19.218;2022-07-29T14:04:53;32.90;45.40
40758;DHT22;26462;47.384;19.218;2022-07-29T14:07:21;33.00;44.80
40758;DHT22;26462;47.384;19.218;2022-07-29T14:09:48;33.00;44.60
40758;DHT22;26462;47.384;19.218;2022-07-29T14:12:17;32.70;44.20
40758;DHT22;26462;47.384;19.218;2022-07-29T14:14:44;32.40;44.40
40758;DHT22;26462;47.384;19.218;2022-07-29T14:17:14;32.40;44.50
40758;DHT22;26462;47.384;19.218;2022-07-29T14:19:42;32.30;44.40
40758;DHT22;26462;47.384;19.218;2022-07-29T14:22:10;32.20;45.70
40758;DHT22;26462;47.384;19.218;2022-07-29T14:24:37;32.10;45.40
40758;DHT22;26462;47.384;19.218;2022-07-29T14:27:06;32.00;45.20
40758;DHT22;26462;47.384;19.218;2022-07-29T14:29:34;32.00;45.90
40758;DHT22;26462;47.384;19.218;2022-07-29T14:32:08;31.90;46.00
40758;DHT22;26462;47.384;19.218;2022-07-29T14:34:37;31.70;46.40
40758;DHT22;26462;47.384;19.218;2022-07-29T14:37:05;31.60;45.90
40758;DHT22;26462;47.384;19.218;2022-07-29T14:39:33;31.50;47.10
40758;DHT22;26462;47.384;19.218;2022-07-29T14:42:09;31.50;46.90
40758;DHT22;26462;47.384;19.218;2022-07-29T14:44:39;31.40;47.70
40758;DHT22;26462;47.384;19.218;2022-07-29T14:47:08;31.60;47.00
40758;DHT22;26462;47.384;19.218;2022-07-29T14:49:36;31.70;46.10
40758;DHT22;26462;47.384;19.218;2022-07-29T14:52:03;31.80;45.90
40758;DHT22;26462;47.384;19.218;2022-07-29T14:54:31;31.80;46.20
40758;DHT22;26462;47.384;19.218;2022-07-29T14:56:58;31.80;46.30
40758;DHT22;26462;47.384;19.218;2022-07-29T14:59:26;31.80;46.40
40758;DHT22;26462;47.384;19.218;2022-07-29T15:01:53;31.80;46.60
40758;DHT22;26462;47.384;19.218;2022-07-29T15:04:21;31.80;46.20
40758;DHT22;26462;47.384;19.218;2022-07-29T15:06:48;31.80;46.50
40758;DHT22;26462;47.384;19.218;2022-07-29T15:09:16;31.70;46.30
40758;DHT22;26462;47.384;19.218;2022-07-29T15:11:45;31.80;46.50
40758;DHT22;26462;47.384;19.218;2022-07-29T15:14:12;31.80;46.40
40758;DHT22;26462;47.384;19.218;2022-07-29T15:16:40;31.70;46.40
40758;DHT22;26462;47.384;19.218;2022-07-29T15:19:12;31.70;46.80
40758;DHT22;26462;47.384;19.218;2022-07-29T15:21:40;31.70;46.40
40758;DHT22;26462;47.384;19.218;2022-07-29T15:24:18;31.60;46.20
40758;DHT22;26462;47.384;19.218;2022-07-29T15:26:46;31.60;46.60
40758;DHT22;26462;47.384;19.218;2022-07-29T15:29:14;31.60;46.30
40758;DHT22;26462;47.384;19.218;2022-07-29T15:31:42;31.50;46.00
40758;DHT22;26462;47.384;19.218;2022-07-29T15:34:10;31.50;46.40
40758;DHT22;26462;47.384;19.218;2022-07-29T15:36:37;31.40;45.70
40758;DHT22;26462;47.384;19.218;2022-07-29T15:39:21;31.50;45.40
40758;DHT22;26462;47.384;19.218;2022-07-29T15:41:50;31.40;45.50
40758;DHT22;26462;47.384;19.218;2022-07-29T15:44:18;31.40;45.50
40758;DHT22;26462;47.384;19.218;2022-07-29T15:46:47;31.40;46.90
40758;DHT22;26462;47.384;19.218;2022-07-29T15:49:39;31.40;46.70
40758;DHT22;26462;47.384;19.218;2022-07-29T15:52:19;31.40;46.10
40758;DHT22;26462;47.384;19.218;2022-07-29T15:54:53;31.40;46.50
40758;DHT22;26462;47.384;19.218;2022-07-29T15:57:21;31.40;46.50
40758;DHT22;26462;47.384;19.218;2022-07-29T15:59:49;31.40;47.10
40758;DHT22;26462;47.384;19.218;2022-07-29T16:02:18;31.40;47.10
40758;DHT22;26462;47.384;19.218;2022-07-29T16:04:45;31.30;46.80
40758;DHT22;26462;47.384;19.218;2022-07-29T16:07:13;31.30;46.60
40758;DHT22;26462;47.384;19.218;2022-07-29T16:09:42;31.20;46.70
40758;DHT22;26462;47.384;19.218;2022-07-29T16:12:09;31.20;47.00
40758;DHT22;26462;47.384;19.218;2022-07-29T16:14:42;31.20;47.60
40758;DHT22;26462;47.384;19.218;2022-07-29T16:17:10;31.20;47.90
40758;DHT22;26462;47.384;19.218;2022-07-29T16:19:41;31.20;47.20
40758;DHT22;26462;47.384;19.218;2022-07-29T16:22:10;31.20;47.90